Time;durP1;ratioP1;P1;durP2;ratioP2;P2;SDS_P1;SDS_P2;PMS_P1;PMS_P2;Temp;Humidity;BMP_temperature;BMP_pressure;BME280_temperature;BME280_humidity;BME280_pressure;Samples;Min_cycle;Max_cycle;Signal;HPM_P1;HPM_P2
2023/01/13 00:01:08;;;;;;;14.73;2.75;;;;;;;9.96;100.00;100217.47;4995871;28;20034;-72
2023/01/13 00:03:35;;;;;;;12.30;3.92;;;;;;;9.96;100.00;100222.78;4989405;28;20091;-72
2023/01/13 00:06:00;;;;;;;13.20;3.22;;;;;;;10.00;100.00;100220.78;4992771;28;20038;-72
2023/01/13 00:08:25;;;;;;;14.25;3.25;;;;;;;9.96;100.00;100214.81;4965902;28;20411;-71
2023/01/13 00:10:51;;;;;;;13.85;3.00;;;;;;;9.89;100.00;100218.88;4974382;28;20120;-72
2023/01/13 00:13:25;;;;;;;17.40;3.22;;;;;;;9.81;100.00;100219.38;4968221;28;20072;-72
2023/01/13 00:16:05;;;;;;;14.85;3.13;;;;;;;9.73;100.00;100221.72;4982180;28;20743;-72
2023/01/13 00:18:31;;;;;;;16.20;3.85;;;;;;;9.71;100.00;100228.13;4986698;28;20498;-72
2023/01/13 00:21:05;;;;;;;20.25;3.53;;;;;;;9.74;100.00;100236.78;4987824;28;20088;-72
2023/01/13 00:23:32;;;;;;;14.25;2.60;;;;;;;9.70;100.00;100232.63;4995787;28;20159;-71
2023/01/13 00:26:00;;;;;;;17.17;3.22;;;;;;;9.60;100.00;100235.06;4995008;28;20042;-71
2023/01/13 00:28:26;;;;;;;8.13;2.58;;;;;;;9.54;100.00;100237.31;4989872;28;20395;-71
2023/01/13 00:30:52;;;;;;;10.80;3.58;;;;;;;9.50;100.00;100236.66;4996731;28;20076;-72
2023/01/13 00:33:17;;;;;;;17.65;3.05;;;;;;;9.48;100.00;100235.03;4971531;28;20714;-72
2023/01/13 00:35:43;;;;;;;22.77;4.63;;;;;;;9.38;100.00;100226.81;4978977;28;20034;-72
2023/01/13 00:38:08;;;;;;;28.38;4.22;;;;;;;9.29;100.00;100231.00;4996449;28;20041;-72
2023/01/13 00:40:34;;;;;;;25.17;3.78;;;;;;;9.28;100.00;100225.75;4974780;28;20558;-72
2023/01/13 00:45:43;;;;;;;22.63;4.60;;;;;;;9.08;100.00;100221.78;4993662;28;20038;-72
2023/01/13 00:48:09;;;;;;;23.25;4.57;;;;;;;8.90;100.00;100221.22;5004517;28;20038;-71
2023/01/13 00:50:35;;;;;;;24.45;3.80;;;;;;;9.03;100.00;100227.41;4999245;28;20034;-72
2023/01/13 00:53:01;;;;;;;25.42;3.60;;;;;;;8.94;100.00;100220.06;4995331;28;20342;-72
2023/01/13 00:55:31;;;;;;;19.60;4.22;;;;;;;8.99;100.00;100222.41;4968234;28;20124;-72
2023/01/13 00:58:02;;;;;;;15.77;3.42;;;;;;;8.99;100.00;100219.75;4970358;28;20034;-72
2023/01/13 01:00:31;;;;;;;13.43;3.65;;;;;;;8.93;100.00;100209.50;4990683;28;20046;-72
2023/01/13 01:02:57;;;;;;;17.92;3.80;;;;;;;8.95;100.00;100212.94;4987294;28;20095;-72
2023/01/13 01:05:23;;;;;;;30.85;4.47;;;;;;;8.95;100.00;100208.47;4994430;28;20754;-72
2023/01/13 01:07:48;;;;;;;19.73;4.18;;;;;;;8.92;100.00;100219.28;4992978;28;20040;-72
2023/01/13 01:10:13;;;;;;;22.25;4.28;;;;;;;8.85;100.00;100212.69;4997144;28;20088;-73
2023/01/13 01:12:39;;;;;;;29.60;4.43;;;;;;;8.83;100.00;100225.22;4996235;28;20061;-72
2023/01/13 01:15:08;;;;;;;25.33;3.95;;;;;;;8.73;100.00;100221.47;5002347;28;20050;-71
2023/01/13 01:17:33;;;;;;;39.85;5.72;;;;;;;8.77;100.00;100212.34;4991331;28;20068;-71
2023/01/13 01:19:59;;;;;;;32.10;5.97;;;;;;;8.86;100.00;100216.19;4990911;28;20113;-71
2023/01/13 01:22:24;;;;;;;26.77;5.25;;;;;;;8.64;100.00;100212.31;4986115;28;20213;-72
2023/01/13 01:24:49;;;;;;;27.52;5.57;;;;;;;8.64;100.00;100209.66;4982992;28;20104;-72
2023/01/13 01:27:15;;;;;;;26.95;4.00;;;;;;;8.57;100.00;100203.00;4984490;28;20038;-71
2023/01/13 01:29:40;;;;;;;34.75;4.80;;;;;;;8.61;100.00;100204.53;4981507;28;20048;-72
2023/01/13 01:32:06;;;;;;;30.40;5.25;;;;;;;8.61;100.00;100203.66;4957967;28;20037;-72
2023/01/13 01:34:31;;;;;;;26.10;4.82;;;;;;;8.57;100.00;100211.81;4988278;28;20041;-72
2023/01/13 01:36:57;;;;;;;22.13;4.75;;;;;;;8.53;100.00;100210.34;4985898;28;20040;-71
2023/01/13 01:39:22;;;;;;;31.50;4.00;;;;;;;8.54;100.00;100213.84;4989467;28;20045;-72
2023/01/13 01:44:41;;;;;;;20.80;4.55;;;;;;;8.62;100.00;100223.97;4974975;28;20049;-73
2023/01/13 01:47:14;;;;;;;27.83;4.88;;;;;;;8.62;100.00;100224.81;4984148;28;20233;-72
2023/01/13 01:49:41;;;;;;;21.30;5.38;;;;;;;8.69;100.00;100228.81;4989114;28;20048;-72
2023/01/13 01:52:13;;;;;;;22.05;5.43;;;;;;;8.80;100.00;100220.97;4985708;28;20120;-72
2023/01/13 01:54:46;;;;;;;19.58;4.97;;;;;;;8.85;100.00;100228.63;4995097;28;20033;-72
2023/01/13 01:57:25;;;;;;;26.13;4.63;;;;;;;8.71;100.00;100228.69;4991075;28;20049;-72
2023/01/13 01:59:51;;;;;;;27.48;4.25;;;;;;;8.66;100.00;100220.16;4991731;28;20592;-72
2023/01/13 02:02:17;;;;;;;25.77;3.95;;;;;;;8.74;100.00;100225.84;4988387;28;20038;-71
2023/01/13 02:04:49;;;;;;;23.52;4.30;;;;;;;8.69;100.00;100228.81;4990192;28;20033;-71
2023/01/13 02:07:31;;;;;;;29.15;5.10;;;;;;;8.65;100.00;100232.59;4988312;28;20046;-72
2023/01/13 02:10:02;;;;;;;25.30;4.53;;;;;;;8.58;100.00;100223.31;4985353;28;20042;-72
2023/01/13 02:12:28;;;;;;;25.83;4.70;;;;;;;8.55;100.00;100221.72;4991139;28;20842;-71
2023/01/13 02:14:58;;;;;;;38.08;5.15;;;;;;;8.50;100.00;100212.34;4999644;28;20064;-72
2023/01/13 02:17:57;;;;;;;26.15;4.78;;;;;;;8.39;100.00;100213.03;4968776;28;20066;-72
2023/01/13 02:20:47;;;;;;;21.92;3.53;;;;;;;8.33;100.00;100221.34;4992774;28;20077;-72
2023/01/13 02:26:57;;;;;;;27.63;3.97;;;;;;;8.31;100.00;100225.91;4984604;28;20046;-72
2023/01/13 02:32:33;;;;;;;32.92;4.80;;;;;;;8.28;100.00;100218.13;4986425;28;20105;-71
2023/01/13 02:35:31;;;;;;;30.63;4.20;;;;;;;8.23;100.00;100226.44;4996239;28;20025;-72
2023/01/13 02:37:59;;;;;;;47.63;5.25;;;;;;;8.24;100.00;100229.94;4983319;28;20166;-73
2023/01/13 02:40:54;;;;;;;31.38;4.85;;;;;;;8.22;100.00;100214.06;4992781;28;20042;-72
2023/01/13 02:46:26;;;;;;;23.40;4.63;;;;;;;8.18;100.00;100209.94;4991772;28;20038;-71
2023/01/13 02:48:56;;;;;;;28.65;4.90;;;;;;;8.24;100.00;100216.66;4987436;28;20554;-72
2023/01/13 02:51:25;;;;;;;33.80;5.00;;;;;;;8.13;100.00;100213.81;4980680;28;20038;-72
2023/01/13 02:53:58;;;;;;;40.38;4.85;;;;;;;8.12;100.00;100218.25;4982146;28;20034;-72
2023/01/13 02:56:25;;;;;;;21.00;4.00;;;;;;;8.11;100.00;100219.22;5002370;28;20046;-72
2023/01/13 02:58:53;;;;;;;29.23;5.53;;;;;;;8.18;100.00;100209.06;4995199;28;20042;-72
2023/01/13 03:01:19;;;;;;;34.63;4.57;;;;;;;8.15;100.00;100207.47;4987946;28;20038;-71
2023/01/13 03:03:45;;;;;;;37.05;4.28;;;;;;;8.14;100.00;100202.25;4973623;28;20170;-72
2023/01/13 03:06:46;;;;;;;25.33;5.25;;;;;;;8.13;100.00;100187.25;4997796;28;20095;-72
2023/01/13 03:09:31;;;;;;;25.83;5.15;;;;;;;8.07;100.00;100185.84;4992777;28;20048;-72
2023/01/13 03:12:14;;;;;;;26.77;4.07;;;;;;;8.08;100.00;100181.38;4990178;28;20054;-72
2023/01/13 03:14:56;;;;;;;36.90;4.50;;;;;;;8.05;100.00;100167.34;4979368;28;20053;-72
2023/01/13 03:17:35;;;;;;;39.47;5.57;;;;;;;8.07;100.00;100166.41;4999925;28;20488;-72
2023/01/13 03:20:17;;;;;;;22.65;4.82;;;;;;;8.07;100.00;100169.06;4973160;28;20042;-72
2023/01/13 03:22:52;;;;;;;;;;;;;;;8.00;100.00;100169.44;4984948;28;20566;-72
2023/01/13 03:25:24;;;;;;;36.97;5.13;;;;;;;8.00;100.00;100165.94;4970786;28;19941;-72
2023/01/13 03:27:50;;;;;;;;;;;;;;;8.10;100.00;100167.06;4982143;28;20065;-71
2023/01/13 03:30:24;;;;;;;32.03;6.10;;;;;;;8.16;100.00;100169.31;5002236;28;19960;-71
2023/01/13 03:32:58;;;;;;;21.63;3.72;;;;;;;8.18;100.00;100171.88;4982403;28;20063;-72
2023/01/13 03:35:35;;;;;;;31.15;5.65;;;;;;;8.20;100.00;100167.34;4990714;28;20050;-71
2023/01/13 03:38:13;;;;;;;32.00;5.60;;;;;;;8.22;100.00;100168.06;4989534;28;20121;-71
2023/01/13 03:40:50;;;;;;;25.15;5.10;;;;;;;8.26;100.00;100162.47;4989382;28;20092;-72
2023/01/13 03:46:16;;;;;;;39.40;6.18;;;;;;;8.30;100.00;100158.66;4985088;28;20142;-72
2023/01/13 03:48:45;;;;;;;23.85;4.03;;;;;;;8.30;100.00;100156.00;4985708;28;20490;-71
2023/01/13 03:51:16;;;;;;;28.33;5.78;;;;;;;8.30;100.00;100153.34;4988291;28;20121;-71
2023/01/13 03:53:51;;;;;;;20.30;5.63;;;;;;;8.34;100.00;100146.03;4985881;28;20050;-72
2023/01/13 03:56:28;;;;;;;31.88;5.85;;;;;;;8.35;100.00;100154.88;4979843;28;20496;-72
2023/01/13 03:58:56;;;;;;;27.65;4.80;;;;;;;8.26;100.00;100158.97;4991034;28;20045;-71
2023/01/13 04:01:51;;;;;;;43.13;6.63;;;;;;;8.34;100.00;100153.16;4972185;28;20054;-72
2023/01/13 04:04:30;;;;;;;31.55;4.57;;;;;;;8.27;100.00;100156.19;4988938;28;20050;-71
2023/01/13 04:07:07;;;;;;;33.70;5.25;;;;;;;8.30;100.00;100147.19;4991304;28;20804;-72
2023/01/13 04:09:39;;;;;;;45.50;7.10;;;;;;;8.30;100.00;100142.72;4989952;28;20037;-71
2023/01/13 04:12:14;;;;;;;33.60;5.18;;;;;;;8.21;100.00;100150.44;4989595;28;20133;-71
2023/01/13 04:14:40;;;;;;;34.55;4.55;;;;;;;8.20;100.00;100149.59;4986771;28;20037;-72
2023/01/13 04:17:05;;;;;;;22.08;4.45;;;;;;;8.25;100.00;100149.28;4993096;28;20483;-72
2023/01/13 04:19:31;;;;;;;37.05;5.47;;;;;;;8.19;100.00;100144.38;4975240;28;20034;-73
2023/01/13 04:21:57;;;;;;;21.95;4.10;;;;;;;8.18;100.00;100153.28;4987184;28;20188;-72
2023/01/13 04:24:23;;;;;;;36.17;5.13;;;;;;;8.25;100.00;100159.91;4994876;28;20057;-72
2023/01/13 04:26:49;;;;;;;36.35;4.45;;;;;;;8.23;100.00;100159.16;4990387;28;20039;-71
2023/01/13 04:29:15;;;;;;;31.80;4.72;;;;;;;8.20;100.00;100162.88;4990716;28;20045;-71
2023/01/13 04:31:40;;;;;;;23.75;3.35;;;;;;;8.07;100.00;100161.94;4993487;28;20038;-71
2023/01/13 04:34:06;;;;;;;33.55;4.50;;;;;;;8.19;100.00;100161.16;4967439;28;20030;-72
2023/01/13 04:36:31;;;;;;;20.48;3.38;;;;;;;8.21;100.00;100158.41;4971338;28;20046;-71
2023/01/13 04:38:57;;;;;;;17.88;3.78;;;;;;;8.18;100.00;100153.28;4984463;28;20038;-71
2023/01/13 04:41:23;;;;;;;18.30;3.00;;;;;;;8.24;100.00;100174.16;5003426;28;20063;-71
2023/01/13 04:43:49;;;;;;;18.90;2.72;;;;;;;8.17;100.00;100143.63;4989664;28;20667;-71
2023/01/13 04:46:14;;;;;;;15.98;2.67;;;;;;;8.32;100.00;100175.34;4987905;28;20050;-71
2023/01/13 04:48:40;;;;;;;17.70;2.40;;;;;;;8.36;100.00;100184.00;5004841;28;20069;-71
2023/01/13 04:51:05;;;;;;;13.65;3.10;;;;;;;8.29;100.00;100162.28;4997287;28;20052;-71
2023/01/13 04:53:31;;;;;;;15.00;3.17;;;;;;;8.30;100.00;100158.66;4990197;28;20045;-72
2023/01/13 04:55:56;;;;;;;11.15;2.35;;;;;;;8.27;100.00;100155.34;5001153;28;20034;-71
2023/01/13 04:58:22;;;;;;;19.88;1.95;;;;;;;8.27;100.00;100158.84;4997135;28;20048;-71
2023/01/13 05:00:49;;;;;;;19.85;3.38;;;;;;;8.22;100.00;100160.94;4986189;28;20042;-71
2023/01/13 05:03:14;;;;;;;11.45;1.88;;;;;;;8.20;100.00;100157.56;4989386;28;20048;-72
2023/01/13 05:05:40;;;;;;;13.02;3.53;;;;;;;8.22;100.00;100162.75;4993675;28;20770;-72
2023/01/13 05:08:05;;;;;;;13.73;1.83;;;;;;;8.08;100.00;100160.97;4988649;28;20550;-71
2023/01/13 05:10:31;;;;;;;11.40;2.10;;;;;;;8.18;99.73;100164.78;4984798;28;20038;-71
2023/01/13 05:18:28;;;;;;;10.73;1.92;;;;;;;8.23;100.00;100156.50;4986138;28;20041;-72
2023/01/13 05:20:54;;;;;;;8.20;1.90;;;;;;;8.34;100.00;100164.63;4977659;28;20604;-71
2023/01/13 05:26:03;;;;;;;16.15;1.70;;;;;;;8.28;100.00;100162.34;4996408;28;20045;-71
2023/01/13 05:28:33;;;;;;;6.28;1.67;;;;;;;8.15;100.00;100150.84;4982397;28;20034;-72
2023/01/13 05:30:59;;;;;;;12.65;2.55;;;;;;;8.17;100.00;100160.41;4994050;28;20053;-72
2023/01/13 05:33:24;;;;;;;16.60;2.00;;;;;;;8.11;100.00;100155.50;4994978;28;20058;-73
2023/01/13 05:35:50;;;;;;;12.20;2.13;;;;;;;8.22;100.00;100152.13;4985167;28;20053;-72
2023/01/13 05:38:16;;;;;;;16.48;1.90;;;;;;;8.16;100.00;100145.41;4964958;28;20092;-71
2023/01/13 05:43:27;;;;;;;12.50;2.35;;;;;;;8.20;100.00;100156.72;4987990;28;20045;-72
2023/01/13 05:45:57;;;;;;;6.82;2.00;;;;;;;8.22;100.00;100168.91;4970122;28;20042;-71
2023/01/13 05:48:25;;;;;;;12.32;2.28;;;;;;;8.22;100.00;100154.78;4992806;28;20036;-71
2023/01/13 05:50:52;;;;;;;12.82;2.03;;;;;;;8.20;100.00;100157.56;4994215;28;20091;-71
2023/01/13 05:53:19;;;;;;;13.02;2.38;;;;;;;8.26;100.00;100167.78;4978464;28;20059;-72
2023/01/13 05:55:44;;;;;;;6.80;2.72;;;;;;;8.38;100.00;100163.50;4990060;28;20064;-71
2023/01/13 05:58:12;;;;;;;6.45;2.65;;;;;;;8.33;100.00;100162.91;4971560;28;20504;-71
2023/01/13 06:00:38;;;;;;;17.58;2.50;;;;;;;8.25;100.00;100154.59;5003200;28;20049;-72
2023/01/13 06:03:03;;;;;;;12.95;2.83;;;;;;;8.32;100.00;100163.88;4989899;28;20061;-72
2023/01/13 06:05:29;;;;;;;7.43;2.45;;;;;;;8.28;100.00;100162.34;4988775;28;20058;-72
2023/01/13 06:07:56;;;;;;;15.75;2.72;;;;;;;8.33;100.00;100170.88;4979319;28;20046;-71
2023/01/13 06:10:22;;;;;;;12.45;2.70;;;;;;;8.19;100.00;100152.34;5000351;28;20045;-71
2023/01/13 06:12:48;;;;;;;17.40;2.22;;;;;;;8.14;100.00;100157.97;4989416;28;20046;-71
2023/01/13 06:15:13;;;;;;;15.65;4.82;;;;;;;8.00;100.00;100166.81;4989088;28;20409;-71
2023/01/13 06:17:39;;;;;;;15.15;3.55;;;;;;;7.91;100.00;100156.75;4996432;28;20030;-71
2023/01/13 06:20:07;;;;;;;17.65;2.95;;;;;;;7.90;100.00;100165.69;4985006;28;20030;-71
2023/01/13 06:22:34;;;;;;;18.92;2.78;;;;;;;7.91;100.00;100167.38;4993731;28;20042;-71
2023/01/13 06:25:00;;;;;;;15.77;2.53;;;;;;;7.96;100.00;100175.06;5001060;28;20380;-71
2023/01/13 06:27:27;;;;;;;19.23;2.97;;;;;;;7.98;100.00;100173.13;4998939;28;20038;-71
2023/01/13 06:29:55;;;;;;;14.55;3.03;;;;;;;8.05;100.00;100180.63;4989958;28;20124;-72
2023/01/13 06:32:26;;;;;;;23.17;2.90;;;;;;;7.92;100.00;100168.22;4991106;28;20062;-70
2023/01/13 06:35:00;;;;;;;21.48;3.60;;;;;;;7.89;100.00;100174.59;4984720;28;20034;-72
2023/01/13 06:37:27;;;;;;;15.13;2.63;;;;;;;7.89;100.00;100179.91;4997218;28;20771;-71
2023/01/13 06:40:00;;;;;;;17.42;4.20;;;;;;;7.86;100.00;100177.44;4999785;28;20811;-72
2023/01/13 06:45:12;;;;;;;16.27;3.28;;;;;;;7.77;100.00;100175.34;4994331;28;20051;-71
2023/01/13 06:47:38;;;;;;;23.67;3.03;;;;;;;7.72;100.00;100183.59;4985284;28;20035;-71
2023/01/13 06:50:03;;;;;;;11.40;2.65;;;;;;;7.69;100.00;100162.56;4998250;28;20030;-72
2023/01/13 06:52:29;;;;;;;14.05;2.45;;;;;;;7.66;100.00;100186.63;4992938;28;20395;-72
2023/01/13 06:54:57;;;;;;;26.60;3.55;;;;;;;7.74;100.00;100186.19;4972846;28;20507;-71
2023/01/13 06:57:23;;;;;;;30.90;3.47;;;;;;;7.67;100.00;100192.78;4987260;28;20460;-71
2023/01/13 06:59:49;;;;;;;18.27;4.88;;;;;;;7.65;100.00;100192.03;4986009;28;20037;-71
2023/01/13 07:02:14;;;;;;;12.70;3.22;;;;;;;7.63;100.00;100188.63;4998149;28;20048;-71
2023/01/13 07:04:40;;;;;;;30.35;3.58;;;;;;;7.70;100.00;100193.47;4993147;28;20042;-71
2023/01/13 07:07:06;;;;;;;21.63;3.00;;;;;;;7.70;100.00;100192.63;4983756;28;20026;-71
2023/01/13 07:09:32;;;;;;;16.13;3.03;;;;;;;7.80;100.00;100199.06;4998164;28;20042;-71
2023/01/13 07:11:57;;;;;;;18.92;2.92;;;;;;;7.76;100.00;100198.38;5000454;28;20056;-71
2023/01/13 07:17:07;;;;;;;15.25;3.30;;;;;;;7.81;100.00;100208.72;4990791;28;20045;-71
2023/01/13 07:19:33;;;;;;;15.50;2.65;;;;;;;7.85;100.00;100204.09;4991133;28;20034;-71
2023/01/13 07:21:58;;;;;;;20.75;3.30;;;;;;;7.85;100.00;100201.44;4974042;28;20042;-71
2023/01/13 07:24:24;;;;;;;14.70;4.15;;;;;;;7.87;100.00;100202.16;4995188;28;20772;-72
2023/01/13 07:26:50;;;;;;;23.45;4.53;;;;;;;7.78;100.00;100192.97;4961365;28;20053;-71
2023/01/13 07:29:16;;;;;;;19.15;4.00;;;;;;;7.82;100.00;100201.59;4989332;28;20048;-71
2023/01/13 07:31:41;;;;;;;14.95;2.80;;;;;;;7.85;100.00;100207.59;4997721;28;20037;-72
2023/01/13 07:34:07;;;;;;;15.35;3.13;;;;;;;7.88;100.00;100207.41;4996604;28;20390;-71
2023/01/13 07:36:33;;;;;;;16.27;3.40;;;;;;;7.87;100.00;100207.47;4979743;28;20498;-72
2023/01/13 07:38:58;;;;;;;28.95;3.22;;;;;;;7.88;100.00;100209.19;4990580;28;20089;-71
2023/01/13 07:44:09;;;;;;;34.67;3.35;;;;;;;7.98;100.00;100208.53;4971067;28;20038;-72
2023/01/13 07:46:36;;;;;;;16.67;3.17;;;;;;;7.84;100.00;100207.69;4992155;28;20468;-72
2023/01/13 07:49:03;;;;;;;18.40;2.95;;;;;;;7.85;100.00;100210.25;4992405;28;20063;-71
2023/01/13 07:51:29;;;;;;;22.65;4.55;;;;;;;7.85;100.00;100217.34;5000013;28;20046;-71
2023/01/13 07:53:54;;;;;;;18.08;3.35;;;;;;;7.85;100.00;100223.50;4985543;28;20113;-71
2023/01/13 07:56:20;;;;;;;20.55;3.05;;;;;;;7.78;100.00;100230.13;5001260;28;20038;-71
2023/01/13 07:58:49;;;;;;;22.50;4.38;;;;;;;7.67;100.00;100217.53;4984293;28;20034;-71
2023/01/13 08:01:16;;;;;;;20.35;3.25;;;;;;;7.75;100.00;100220.56;4997604;28;20085;-70
2023/01/13 08:03:41;;;;;;;25.75;3.13;;;;;;;7.85;100.00;100222.66;4995504;28;20053;-71
2023/01/13 08:06:08;;;;;;;18.73;3.35;;;;;;;7.93;100.00;100223.00;4988309;28;20046;-71
2023/01/13 08:08:34;;;;;;;33.33;4.22;;;;;;;7.94;100.00;100230.91;4990947;28;20049;-71
2023/01/13 08:11:01;;;;;;;12.63;3.17;;;;;;;8.08;100.00;100242.44;4991136;28;20081;-71
2023/01/13 08:13:26;;;;;;;16.00;4.10;;;;;;;7.99;100.00;100234.13;4978486;28;20057;-70
2023/01/13 08:15:58;;;;;;;14.32;3.60;;;;;;;8.19;100.00;100237.34;4995120;28;20034;-71
2023/01/13 08:18:24;;;;;;;19.38;2.83;;;;;;;8.07;100.00;100232.78;4999844;28;20312;-71
2023/01/13 08:20:53;;;;;;;24.55;3.13;;;;;;;8.20;100.00;100242.53;4990900;28;20046;-71
2023/01/13 08:23:20;;;;;;;14.73;2.97;;;;;;;8.24;100.00;100240.56;5000849;28;20045;-71
2023/01/13 08:25:46;;;;;;;21.60;3.42;;;;;;;8.16;100.00;100238.38;5003653;28;20038;-71
2023/01/13 08:28:12;;;;;;;15.52;4.18;;;;;;;8.14;100.00;100232.31;5008293;28;20552;-71
2023/01/13 08:30:38;;;;;;;20.92;4.43;;;;;;;8.31;100.00;100245.38;4996788;28;20081;-71
2023/01/13 08:33:09;;;;;;;17.58;3.00;;;;;;;8.32;100.00;100235.59;4995092;28;20046;-71
2023/01/13 08:35:36;;;;;;;24.00;3.50;;;;;;;8.31;100.00;100241.84;5000207;28;20038;-71
2023/01/13 08:38:02;;;;;;;26.42;4.97;;;;;;;8.35;100.00;100246.03;4991411;28;20038;-71
2023/01/13 08:40:27;;;;;;;12.32;2.97;;;;;;;8.41;100.00;100236.84;4993991;28;20038;-71
2023/01/13 08:42:54;;;;;;;29.58;3.92;;;;;;;8.36;100.00;100242.44;4996711;28;20849;-71
2023/01/13 08:45:20;;;;;;;35.78;4.80;;;;;;;8.42;100.00;100251.84;4966666;28;20034;-72
2023/01/13 08:47:45;;;;;;;11.93;3.28;;;;;;;8.36;100.00;100239.78;4997540;28;20034;-72
2023/01/13 08:50:11;;;;;;;30.45;4.32;;;;;;;8.45;100.00;100243.69;4997310;28;20491;-71
2023/01/13 08:52:37;;;;;;;23.88;3.65;;;;;;;8.44;100.00;100249.94;4983888;28;20164;-71
2023/01/13 08:55:02;;;;;;;27.50;3.42;;;;;;;8.42;100.00;100242.06;4995580;28;20042;-71
2023/01/13 08:57:28;;;;;;;16.20;3.25;;;;;;;8.46;100.00;100254.19;4984003;28;20899;-71
2023/01/13 08:59:54;;;;;;;24.08;4.03;;;;;;;8.53;100.00;100263.50;4999905;28;20042;-71
2023/01/13 09:02:21;;;;;;;23.98;5.13;;;;;;;8.53;100.00;100262.63;4979557;28;20057;-71
2023/01/13 09:04:47;;;;;;;18.42;3.53;;;;;;;8.51;100.00;100256.56;4996756;28;20045;-70
2023/01/13 09:07:12;;;;;;;13.27;3.00;;;;;;;8.53;100.00;100276.78;4997007;28;20100;-71
2023/01/13 09:09:38;;;;;;;28.00;3.67;;;;;;;8.54;100.00;100265.19;4991507;28;20097;-71
2023/01/13 09:15:39;;;;;;;31.13;4.53;;;;;;;8.65;99.36;100283.09;4998225;28;20056;-70
2023/01/13 09:18:05;;;;;;;21.20;3.15;;;;;;;8.66;99.47;100274.16;4996691;28;20061;-71
2023/01/13 09:20:30;;;;;;;25.73;4.00;;;;;;;8.64;100.00;100278.75;4996122;28;20080;-72
2023/01/13 09:22:56;;;;;;;22.95;3.92;;;;;;;8.41;100.00;100272.22;4998499;28;20038;-71
2023/01/13 09:25:21;;;;;;;21.92;4.15;;;;;;;8.45;100.00;100276.41;4997790;28;20042;-71
2023/01/13 09:27:47;;;;;;;32.05;5.30;;;;;;;8.60;100.00;100279.03;4996881;28;20038;-71
2023/01/13 09:30:12;;;;;;;24.98;4.82;;;;;;;8.60;100.00;100276.38;4992088;28;20031;-71
2023/01/13 09:32:38;;;;;;;21.30;3.85;;;;;;;8.68;100.00;100282.88;4997602;28;20053;-71
2023/01/13 09:35:06;;;;;;;13.82;3.67;;;;;;;8.77;100.00;100289.44;4998392;28;20034;-70
2023/01/13 09:37:34;;;;;;;27.35;4.88;;;;;;;8.85;100.00;100295.09;5009758;28;20704;-71
2023/01/13 09:40:01;;;;;;;29.88;4.13;;;;;;;9.01;99.04;100297.63;4991645;28;20034;-72
2023/01/13 09:45:21;;;;;;;24.40;3.50;;;;;;;8.88;100.00;100294.88;4998659;28;20061;-71
2023/01/13 09:48:12;;;;;;;27.40;3.47;;;;;;;9.02;100.00;100313.47;4987288;28;20050;-71
2023/01/13 09:50:45;;;;;;;23.77;4.00;;;;;;;8.86;99.42;100317.22;4986542;28;20452;-71
2023/01/13 09:53:32;;;;;;;23.50;4.55;;;;;;;8.89;99.96;100317.03;4984760;28;20519;-71
2023/01/13 09:55:59;;;;;;;25.58;3.70;;;;;;;8.90;100.00;100329.38;4981141;28;20045;-70
2023/01/13 09:58:25;;;;;;;73.70;7.18;;;;;;;8.90;100.00;100332.88;4996765;28;20030;-71
2023/01/13 10:00:54;;;;;;;21.85;3.95;;;;;;;8.86;100.00;100338.50;4982828;28;20069;-71
2023/01/13 10:03:26;;;;;;;23.10;3.55;;;;;;;8.74;100.00;100338.34;4989817;28;20095;-71
2023/01/13 10:05:58;;;;;;;26.88;3.47;;;;;;;8.72;100.00;100342.88;4987706;28;20081;-71
2023/01/13 10:08:32;;;;;;;27.90;4.82;;;;;;;8.75;100.00;100342.69;4996314;28;20137;-70
2023/01/13 10:14:40;;;;;;;25.60;3.42;;;;;;;8.57;100.00;100341.19;4995018;28;20464;-71
2023/01/13 10:17:17;;;;;;;23.70;5.45;;;;;;;8.56;100.00;100348.31;4976852;28;20069;-70
2023/01/13 10:19:51;;;;;;;20.05;3.72;;;;;;;8.61;100.00;100355.16;4998089;28;20045;-71
2023/01/13 10:22:32;;;;;;;23.45;3.92;;;;;;;8.43;100.00;100349.19;4988688;28;20045;-72
2023/01/13 10:25:17;;;;;;;19.00;3.88;;;;;;;8.33;100.00;100356.81;4975847;28;20046;-71
2023/01/13 10:27:48;;;;;;;24.45;4.07;;;;;;;8.29;100.00;100358.84;4992855;28;20175;-73
2023/01/13 10:30:16;;;;;;;20.33;4.55;;;;;;;8.27;100.00;100354.56;4975927;28;20046;-74
2023/01/13 10:32:45;;;;;;;25.92;5.50;;;;;;;8.13;100.00;100375.78;4995005;28;20038;-71
2023/01/13 10:35:10;;;;;;;29.23;5.13;;;;;;;8.28;100.00;100388.13;4994375;28;20068;-73
2023/01/13 10:37:36;;;;;;;24.70;5.53;;;;;;;8.22;100.00;100384.06;4975064;28;20499;-70
2023/01/13 10:40:03;;;;;;;24.40;4.30;;;;;;;8.31;100.00;100394.13;4993708;28;20037;-71
2023/01/13 10:42:29;;;;;;;18.63;3.80;;;;;;;8.19;100.00;100400.19;4992608;28;20080;-73
2023/01/13 10:44:56;;;;;;;20.50;3.83;;;;;;;8.29;100.00;100392.53;4996838;28;20038;-72
2023/01/13 10:47:25;;;;;;;22.73;4.28;;;;;;;8.30;100.00;100394.22;4993962;28;20048;-70
2023/01/13 10:50:04;;;;;;;20.23;3.70;;;;;;;8.20;100.00;100393.06;4993066;28;20038;-71
2023/01/13 10:52:36;;;;;;;17.55;3.65;;;;;;;8.37;100.00;100406.19;4993676;28;20049;-73
2023/01/13 10:55:02;;;;;;;19.65;3.95;;;;;;;8.39;100.00;100395.50;4991374;28;20129;-70
2023/01/13 10:57:28;;;;;;;25.25;3.85;;;;;;;8.46;100.00;100399.47;4992555;28;20053;-70
2023/01/13 10:59:54;;;;;;;16.30;3.50;;;;;;;8.69;100.00;100406.88;4992819;28;20031;-72
2023/01/13 11:02:24;;;;;;;20.35;4.25;;;;;;;8.62;100.00;100404.69;4993929;28;20065;-71
2023/01/13 11:04:52;;;;;;;19.00;3.28;;;;;;;8.67;100.00;100402.59;4992318;28;20061;-70
2023/01/13 11:07:49;;;;;;;21.60;3.47;;;;;;;8.81;100.00;100399.94;4993681;28;20042;-70
2023/01/13 11:10:30;;;;;;;26.55;4.47;;;;;;;8.77;100.00;100393.09;4976958;28;20057;-71
2023/01/13 11:13:14;;;;;;;32.70;3.92;;;;;;;8.79;100.00;100388.56;4992033;28;20054;-71
2023/01/13 11:15:45;;;;;;;30.40;5.05;;;;;;;8.87;100.00;100390.72;4974173;28;20547;-70
2023/01/13 11:18:36;;;;;;;22.92;3.60;;;;;;;9.07;100.00;100398.28;4990695;28;20046;-72
2023/01/13 11:21:08;;;;;;;20.50;3.85;;;;;;;9.19;100.00;100394.84;4963061;28;20366;-72
2023/01/13 11:23:39;;;;;;;19.67;3.13;;;;;;;9.13;100.00;100392.53;4974518;28;20069;-73
2023/01/13 11:26:16;;;;;;;19.67;3.70;;;;;;;9.12;100.00;100390.00;4991956;28;20974;-72
2023/01/13 11:28:42;;;;;;;28.88;3.28;;;;;;;8.98;100.00;100391.72;4990909;28;20046;-72
2023/01/13 11:31:17;;;;;;;18.85;3.50;;;;;;;8.80;100.00;100407.06;4991460;28;20061;-73
2023/01/13 11:33:49;;;;;;;36.72;5.05;;;;;;;8.76;100.00;100399.38;4991445;28;21514;-73
2023/01/13 11:36:17;;;;;;;;;;;;;;;9.20;100.00;100411.66;4991734;28;20038;-70
2023/01/13 11:38:50;;;;;;;24.42;4.47;;;;;;;9.45;100.00;100401.09;4970408;28;19925;-73
2023/01/13 11:41:21;;;;;;;23.95;3.97;;;;;;;9.20;100.00;100401.84;4989985;28;20093;-72
2023/01/13 11:43:53;;;;;;;37.22;6.57;;;;;;;9.29;100.00;100417.22;4973065;28;20716;-73
2023/01/13 11:46:22;;;;;;;19.52;3.33;;;;;;;9.31;100.00;100425.09;4990344;28;20042;-73
2023/01/13 11:48:47;;;;;;;23.73;5.13;;;;;;;9.48;100.00;100419.53;4972417;28;20042;-71
2023/01/13 11:51:13;;;;;;;26.45;4.45;;;;;;;9.17;100.00;100422.47;4990976;28;20498;-72
2023/01/13 11:54:11;;;;;;;32.00;4.38;;;;;;;9.13;100.00;100429.78;4988922;28;20046;-73
2023/01/13 11:56:55;;;;;;;18.05;3.53;;;;;;;9.32;100.00;100426.81;4990129;28;20042;-72
2023/01/13 11:59:50;;;;;;;16.58;3.35;;;;;;;9.24;100.00;100437.09;4967085;28;20038;-72
2023/01/13 12:02:46;;;;;;;14.65;3.05;;;;;;;9.31;100.00;100441.91;4989357;28;20057;-73
2023/01/13 12:05:41;;;;;;;9.95;2.05;;;;;;;9.14;100.00;100451.94;4983593;28;20073;-73
2023/01/13 12:08:17;;;;;;;26.83;3.58;;;;;;;9.40;100.00;100444.94;4969328;28;20073;-72
2023/01/13 12:11:04;;;;;;;23.95;3.78;;;;;;;9.19;100.00;100442.72;4983120;28;20065;-72
2023/01/13 12:14:05;;;;;;;30.98;5.80;;;;;;;9.27;100.00;100447.53;4986309;28;20104;-72
2023/01/13 12:16:31;;;;;;;25.70;4.15;;;;;;;9.13;100.00;100437.75;4987614;28;20038;-72
2023/01/13 12:19:15;;;;;;;15.82;2.92;;;;;;;8.86;100.00;100452.81;4987774;28;20143;-71